sensor_id;sensor_type;location;lat;lon;timestamp;pressure;altitude;pressure_sealevel;temperature;humidity
25869;BME280;13688;53.154;18.136;2022-11-13T00:02:53;102560.96;;;9.17;100.00
25869;BME280;13688;53.154;18.136;2022-11-13T00:08:15;102559.15;;;9.18;100.00
25869;BME280;13688;53.154;18.136;2022-11-13T00:13:39;102546.60;;;9.18;100.00
25869;BME280;13688;53.154;18.136;2022-11-13T00:19:02;102552.84;;;9.19;100.00
25869;BME280;13688;53.154;18.136;2022-11-13T00:24:25;102546.46;;;9.22;100.00
25869;BME280;13688;53.154;18.136;2022-11-13T00:29:48;102549.07;;;9.23;100.00
25869;BME280;13688;53.154;18.136;2022-11-13T00:35:12;102548.20;;;9.23;100.00
25869;BME280;13688;53.154;18.136;2022-11-13T00:40:34;102547.33;;;9.22;100.00
25869;BME280;13688;53.154;18.136;2022-11-13T00:45:57;102552.77;;;9.21;100.00
25869;BME280;13688;53.154;18.136;2022-11-13T00:51:21;102560.02;;;9.18;100.00
25869;BME280;13688;53.154;18.136;2022-11-13T00:56:43;102554.77;;;9.15;100.00
25869;BME280;13688;53.154;18.136;2022-11-13T01:02:05;102545.84;;;9.15;100.00
25869;BME280;13688;53.154;18.136;2022-11-13T01:07:28;102543.16;;;9.15;100.00
25869;BME280;13688;53.154;18.136;2022-11-13T01:12:51;102537.72;;;9.16;100.00
25869;BME280;13688;53.154;18.136;2022-11-13T01:18:13;102543.91;;;9.18;100.00
25869;BME280;13688;53.154;18.136;2022-11-13T01:23:36;102546.67;;;9.17;100.00
25869;BME280;13688;53.154;18.136;2022-11-13T01:28:59;102536.81;;;9.17;100.00
25869;BME280;13688;53.154;18.136;2022-11-13T01:34:22;102537.68;;;9.18;100.00
25869;BME280;13688;53.154;18.136;2022-11-13T01:39:45;102535.80;;;9.20;100.00
25869;BME280;13688;53.154;18.136;2022-11-13T01:51:07;102534.13;;;9.17;100.00
25869;BME280;13688;53.154;18.136;2022-11-13T01:56:55;102534.59;;;9.27;100.00
25869;BME280;13688;53.154;18.136;2022-11-13T02:02:18;102524.26;;;9.18;100.00
25869;BME280;13688;53.154;18.136;2022-11-13T02:07:41;102526.98;;;9.16;100.00
25869;BME280;13688;53.154;18.136;2022-11-13T02:13:03;102526.11;;;9.16;100.00
25869;BME280;13688;53.154;18.136;2022-11-13T02:18:27;102526.11;;;9.16;100.00
25869;BME280;13688;53.154;18.136;2022-11-13T02:24:09;102528.86;;;9.14;100.00
25869;BME280;13688;53.154;18.136;2022-11-13T02:29:34;102529.73;;;9.15;100.00
25869;BME280;13688;53.154;18.136;2022-11-13T02:34:56;102525.31;;;9.14;100.00
25869;BME280;13688;53.154;18.136;2022-11-13T02:40:19;102517.33;;;9.12;100.00
25869;BME280;13688;53.154;18.136;2022-11-13T02:45:41;102514.65;;;9.12;100.00
25869;BME280;13688;53.154;18.136;2022-11-13T02:51:04;102519.94;;;9.14;100.00
25869;BME280;13688;53.154;18.136;2022-11-13T02:56:26;102513.63;;;9.15;100.00
25869;BME280;13688;53.154;18.136;2022-11-13T03:01:48;102517.19;;;9.15;100.00
25869;BME280;13688;53.154;18.136;2022-11-13T03:07:12;102512.66;;;9.17;100.00
25869;BME280;13688;53.154;18.136;2022-11-13T03:12:35;102504.64;;;9.16;100.00
25869;BME280;13688;53.154;18.136;2022-11-13T03:18:01;102500.11;;;9.18;100.00
25869;BME280;13688;53.154;18.136;2022-11-13T03:23:21;102502.03;;;9.14;100.00
25869;BME280;13688;53.154;18.136;2022-11-13T03:28:44;102504.64;;;9.16;100.00
25869;BME280;13688;53.154;18.136;2022-11-13T03:34:07;102504.71;;;9.14;100.00
25869;BME280;13688;53.154;18.136;2022-11-13T03:39:29;102510.08;;;9.14;100.00
25869;BME280;13688;53.154;18.136;2022-11-13T03:44:51;102505.52;;;9.16;100.00
25869;BME280;13688;53.154;18.136;2022-11-13T03:50:14;102502.78;;;9.18;100.00
25869;BME280;13688;53.154;18.136;2022-11-13T03:55:36;102495.72;;;9.15;100.00
25869;BME280;13688;53.154;18.136;2022-11-13T04:01:00;102499.27;;;9.16;100.00
25869;BME280;13688;53.154;18.136;2022-11-13T04:06:22;102494.92;;;9.13;100.00
25869;BME280;13688;53.154;18.136;2022-11-13T04:11:45;102486.94;;;9.12;100.00
25869;BME280;13688;53.154;18.136;2022-11-13T04:17:07;102488.75;;;9.11;100.00
25869;BME280;13688;53.154;18.136;2022-11-13T04:22:29;102488.75;;;9.11;100.00
25869;BME280;13688;53.154;18.136;2022-11-13T04:27:54;102495.94;;;9.11;100.00
25869;BME280;13688;53.154;18.136;2022-11-13T04:33:16;102489.62;;;9.12;100.00
25869;BME280;13688;53.154;18.136;2022-11-13T04:38:38;102503.91;;;9.12;100.00
25869;BME280;13688;53.154;18.136;2022-11-13T04:44:00;102506.59;;;9.12;100.00
25869;BME280;13688;53.154;18.136;2022-11-13T04:49:24;102499.48;;;9.11;100.00
25869;BME280;13688;53.154;18.136;2022-11-13T04:54:46;102506.67;;;9.11;100.00
25869;BME280;13688;53.154;18.136;2022-11-13T05:00:10;102496.88;;;9.10;100.00
25869;BME280;13688;53.154;18.136;2022-11-13T05:05:32;102501.37;;;9.09;100.00
25869;BME280;13688;53.154;18.136;2022-11-13T05:10:55;102506.59;;;9.12;100.00
25869;BME280;13688;53.154;18.136;2022-11-13T05:16:19;102505.73;;;9.12;100.00
25869;BME280;13688;53.154;18.136;2022-11-13T05:21:42;102511.96;;;9.12;100.00
25869;BME280;13688;53.154;18.136;2022-11-13T05:27:04;102509.20;;;9.14;100.00
25869;BME280;13688;53.154;18.136;2022-11-13T05:32:26;102514.50;;;9.15;100.00
25869;BME280;13688;53.154;18.136;2022-11-13T05:37:49;102509.20;;;9.14;100.00
25869;BME280;13688;53.154;18.136;2022-11-13T05:43:11;102512.66;;;9.17;100.00
25869;BME280;13688;53.154;18.136;2022-11-13T05:48:34;102515.27;;;9.19;100.00
25869;BME280;13688;53.154;18.136;2022-11-13T05:53:57;102519.69;;;9.20;100.00
25869;BME280;13688;53.154;18.136;2022-11-13T05:59:20;102512.58;;;9.19;100.00
25869;BME280;13688;53.154;18.136;2022-11-13T06:04:43;102510.77;;;9.20;100.00
25869;BME280;13688;53.154;18.136;2022-11-13T06:10:06;102510.77;;;9.20;100.00
25869;BME280;13688;53.154;18.136;2022-11-13T06:15:28;102506.27;;;9.20;100.00
25869;BME280;13688;53.154;18.136;2022-11-13T06:20:51;102509.83;;;9.21;100.00
25869;BME280;13688;53.154;18.136;2022-11-13T06:26:24;102504.31;;;9.24;100.00
25869;BME280;13688;53.154;18.136;2022-11-13T06:31:47;102498.88;;;9.25;100.00
25869;BME280;13688;53.154;18.136;2022-11-13T06:37:09;102502.17;;;9.32;100.00
25869;BME280;13688;53.154;18.136;2022-11-13T06:42:32;102507.39;;;9.35;100.00
25869;BME280;13688;53.154;18.136;2022-11-13T06:47:55;102494.84;;;9.35;100.00
25869;BME280;13688;53.154;18.136;2022-11-13T06:53:18;102501.16;;;9.34;100.00
25869;BME280;13688;53.154;18.136;2022-11-13T06:58:40;102503.77;;;9.36;100.00
25869;BME280;13688;53.154;18.136;2022-11-13T07:04:03;102510.77;;;9.40;100.00
25869;BME280;13688;53.154;18.136;2022-11-13T07:09:27;102508.73;;;9.45;100.00
25869;BME280;13688;53.154;18.136;2022-11-13T07:14:49;102507.59;;;9.51;100.00
25869;BME280;13688;53.154;18.136;2022-11-13T07:20:11;102502.00;;;9.55;100.00
25869;BME280;13688;53.154;18.136;2022-11-13T07:25:34;102509.65;;;9.64;100.00
25869;BME280;13688;53.154;18.136;2022-11-13T07:30:57;102507.56;;;9.71;100.00
25869;BME280;13688;53.154;18.136;2022-11-13T07:36:20;102507.72;;;9.68;100.00
25869;BME280;13688;53.154;18.136;2022-11-13T07:41:43;102506.84;;;9.67;100.00
25869;BME280;13688;53.154;18.136;2022-11-13T07:47:06;102504.27;;;9.64;100.00
25869;BME280;13688;53.154;18.136;2022-11-13T07:52:29;102513.95;;;9.68;100.00
25869;BME280;13688;53.154;18.136;2022-11-13T07:57:54;102513.66;;;9.74;100.00
25869;BME280;13688;53.154;18.136;2022-11-13T08:03:18;102512.06;;;9.70;100.00
25869;BME280;13688;53.154;18.136;2022-11-13T08:08:41;102514.68;;;9.72;100.00
25869;BME280;13688;53.154;18.136;2022-11-13T08:14:04;102516.42;;;9.73;100.00
25869;BME280;13688;53.154;18.136;2022-11-13T08:19:28;102522.66;;;9.73;100.00
25869;BME280;13688;53.154;18.136;2022-11-13T08:24:50;102523.53;;;9.74;100.00
25869;BME280;13688;53.154;18.136;2022-11-13T08:30:13;102531.40;;;9.79;100.00
25869;BME280;13688;53.154;18.136;2022-11-13T08:35:36;102533.94;;;9.82;100.00
25869;BME280;13688;53.154;18.136;2022-11-13T08:41:04;102528.14;;;9.91;100.00
25869;BME280;13688;53.154;18.136;2022-11-13T08:46:27;102534.31;;;9.93;100.00
25869;BME280;13688;53.154;18.136;2022-11-13T08:51:50;102529.95;;;9.90;100.00
25869;BME280;13688;53.154;18.136;2022-11-13T08:57:12;102537.00;;;9.93;100.00
25869;BME280;13688;53.154;18.136;2022-11-13T09:02:34;102541.31;;;9.97;100.00
25869;BME280;13688;53.154;18.136;2022-11-13T09:07:59;102537.52;;;10.01;100.00
25869;BME280;13688;53.154;18.136;2022-11-13T09:13:22;102536.95;;;9.94;100.00
25869;BME280;13688;53.154;18.136;2022-11-13T09:18:48;102543.49;;;10.08;100.00
25869;BME280;13688;53.154;18.136;2022-11-13T09:24:11;102536.94;;;10.13;100.00
25869;BME280;13688;53.154;18.136;2022-11-13T09:29:33;102535.28;;;10.11;100.00
25869;BME280;13688;53.154;18.136;2022-11-13T09:34:57;102533.18;;;10.17;100.00
25869;BME280;13688;53.154;18.136;2022-11-13T09:40:25;102530.50;;;10.17;100.00
25869;BME280;13688;53.154;18.136;2022-11-13T09:46:09;102535.08;;;10.15;100.00
25869;BME280;13688;53.154;18.136;2022-11-13T09:51:46;102523.09;;;10.22;100.00
25869;BME280;13688;53.154;18.136;2022-11-13T09:57:39;102523.97;;;10.23;100.00
25869;BME280;13688;53.154;18.136;2022-11-13T10:03:18;102517.13;;;10.16;100.00
25869;BME280;13688;53.154;18.136;2022-11-13T10:08:54;102522.19;;;10.03;100.00
25869;BME280;13688;53.154;18.136;2022-11-13T10:14:37;102511.94;;;9.92;100.00
25869;BME280;13688;53.154;18.136;2022-11-13T10:20:12;102517.17;;;9.77;100.00
25869;BME280;13688;53.154;18.136;2022-11-13T10:25:41;102502.04;;;9.74;100.00
25869;BME280;13688;53.154;18.136;2022-11-13T10:31:07;102504.61;;;9.77;100.00
25869;BME280;13688;53.154;18.136;2022-11-13T10:36:33;102503.36;;;9.84;100.00
25869;BME280;13688;53.154;18.136;2022-11-13T10:42:19;102497.00;;;9.87;100.00
25869;BME280;13688;53.154;18.136;2022-11-13T10:47:42;102488.94;;;9.87;100.00
25869;BME280;13688;53.154;18.136;2022-11-13T10:53:12;102490.31;;;9.77;100.00
25869;BME280;13688;53.154;18.136;2022-11-13T10:58:30;102482.94;;;9.61;100.00
25869;BME280;13688;53.154;18.136;2022-11-13T11:03:55;102471.41;;;9.59;100.00
25869;BME280;13688;53.154;18.136;2022-11-13T11:09:32;102477.98;;;9.52;100.00
25869;BME280;13688;53.154;18.136;2022-11-13T11:15:08;102479.23;;;9.64;100.00
25869;BME280;13688;53.154;18.136;2022-11-13T11:20:47;102487.78;;;9.53;100.00
25869;BME280;13688;53.154;18.136;2022-11-13T11:26:17;102486.12;;;9.51;100.00
25869;BME280;13688;53.154;18.136;2022-11-13T11:31:55;102478.20;;;9.48;100.00
25869;BME280;13688;53.154;18.136;2022-11-13T11:37:30;102469.06;;;9.52;100.00
25869;BME280;13688;53.154;18.136;2022-11-13T11:43:15;102460.09;;;9.71;100.00
25869;BME280;13688;53.154;18.136;2022-11-13T11:48:37;102446.38;;;9.78;100.00
25869;BME280;13688;53.154;18.136;2022-11-13T11:54:08;102441.37;;;9.89;100.00
25869;BME280;13688;53.154;18.136;2022-11-13T11:59:54;102444.33;;;10.01;100.00
25869;BME280;13688;53.154;18.136;2022-11-13T12:05:21;102442.58;;;10.19;100.00
25869;BME280;13688;53.154;18.136;2022-11-13T12:16:28;102443.89;;;10.11;100.00
25869;BME280;13688;53.154;18.136;2022-11-13T12:22:22;102438.33;;;9.96;100.00
25869;BME280;13688;53.154;18.136;2022-11-13T12:27:49;102438.24;;;9.98;100.00
25869;BME280;13688;53.154;18.136;2022-11-13T12:44:53;102426.70;;;9.77;100.00
25869;BME280;13688;53.154;18.136;2022-11-13T12:50:28;102424.53;;;9.85;100.00
25869;BME280;13688;53.154;18.136;2022-11-13T12:56:02;102420.74;;;9.70;100.00
25869;BME280;13688;53.154;18.136;2022-11-13T13:01:28;102420.66;;;9.72;100.00
25869;BME280;13688;53.154;18.136;2022-11-13T13:07:16;102423.15;;;9.77;100.00
25869;BME280;13688;53.154;18.136;2022-11-13T13:12:52;102419.72;;;9.73;100.00
25869;BME280;13688;53.154;18.136;2022-11-13T13:18:38;102419.00;;;9.69;100.00
25869;BME280;13688;53.154;18.136;2022-11-13T13:24:08;102424.45;;;9.68;100.00
25869;BME280;13688;53.154;18.136;2022-11-13T13:29:39;102423.70;;;9.64;100.00
25869;BME280;13688;53.154;18.136;2022-11-13T13:35:20;102406.67;;;9.65;100.00
25869;BME280;13688;53.154;18.136;2022-11-13T13:46:34;102399.69;;;9.61;100.00
25869;BME280;13688;53.154;18.136;2022-11-13T13:51:58;102406.23;;;9.56;100.00
25869;BME280;13688;53.154;18.136;2022-11-13T13:57:22;102399.24;;;9.52;100.00
25869;BME280;13688;53.154;18.136;2022-11-13T14:02:55;102393.88;;;9.52;100.00
25869;BME280;13688;53.154;18.136;2022-11-13T14:08:25;102391.54;;;9.44;100.00
25869;BME280;13688;53.154;18.136;2022-11-13T14:13:48;102383.48;;;9.44;100.00
25869;BME280;13688;53.154;18.136;2022-11-13T14:19:14;102385.45;;;9.40;100.00
25869;BME280;13688;53.154;18.136;2022-11-13T14:24:55;102380.35;;;9.34;100.00
25869;BME280;13688;53.154;18.136;2022-11-13T14:30:32;102375.85;;;9.35;100.00
25869;BME280;13688;53.154;18.136;2022-11-13T14:35:58;102374.04;;;9.35;100.00
25869;BME280;13688;53.154;18.136;2022-11-13T14:47:18;102364.63;;;9.27;100.00
25869;BME280;13688;53.154;18.136;2022-11-13T14:52:39;102364.63;;;9.27;100.00
25869;BME280;13688;53.154;18.136;2022-11-13T14:58:04;102359.37;;;9.24;100.00
25869;BME280;13688;53.154;18.136;2022-11-13T15:03:27;102364.89;;;9.21;100.00
25869;BME280;13688;53.154;18.136;2022-11-13T15:08:52;102360.55;;;9.18;100.00
25869;BME280;13688;53.154;18.136;2022-11-13T15:14:17;102350.45;;;9.23;100.00
25869;BME280;13688;53.154;18.136;2022-11-13T15:19:40;102353.37;;;9.18;100.00
25869;BME280;13688;53.154;18.136;2022-11-13T15:25:16;102353.73;;;9.30;100.00
25869;BME280;13688;53.154;18.136;2022-11-13T15:30:39;102346.30;;;9.16;100.00
25869;BME280;13688;53.154;18.136;2022-11-13T15:36:01;102338.41;;;9.13;100.00
25869;BME280;13688;53.154;18.136;2022-11-13T15:41:26;102350.08;;;9.12;100.00
25869;BME280;13688;53.154;18.136;2022-11-13T15:46:49;102345.28;;;9.00;100.00
25869;BME280;13688;53.154;18.136;2022-11-13T15:52:13;102351.63;;;8.97;100.00
25869;BME280;13688;53.154;18.136;2022-11-13T15:57:36;102349.24;;;8.91;100.00
25869;BME280;13688;53.154;18.136;2022-11-13T16:02:59;102345.63;;;8.92;100.00
25869;BME280;13688;53.154;18.136;2022-11-13T16:08:22;102351.13;;;8.89;100.00
25869;BME280;13688;53.154;18.136;2022-11-13T16:13:45;102337.77;;;8.87;100.00
25869;BME280;13688;53.154;18.136;2022-11-13T16:19:14;102328.05;;;8.85;100.00
25869;BME280;13688;53.154;18.136;2022-11-13T16:24:34;102323.62;;;8.84;100.00
25869;BME280;13688;53.154;18.136;2022-11-13T16:29:56;102326.39;;;8.82;100.00
25869;BME280;13688;53.154;18.136;2022-11-13T16:35:21;102326.31;;;8.84;100.00
25869;BME280;13688;53.154;18.136;2022-11-13T16:40:44;102331.94;;;8.78;100.00
25869;BME280;13688;53.154;18.136;2022-11-13T16:46:14;102313.38;;;8.73;100.00
25869;BME280;13688;53.154;18.136;2022-11-13T16:51:35;102324.38;;;8.67;100.00
25869;BME280;13688;53.154;18.136;2022-11-13T16:56:57;102323.65;;;8.64;100.00
25869;BME280;13688;53.154;18.136;2022-11-13T17:02:21;102313.14;;;8.59;100.00
25869;BME280;13688;53.154;18.136;2022-11-13T17:07:44;102300.72;;;8.56;100.00
25869;BME280;13688;53.154;18.136;2022-11-13T17:13:08;102298.03;;;8.56;100.00
25869;BME280;13688;53.154;18.136;2022-11-13T17:18:30;102298.98;;;8.55;100.00
25869;BME280;13688;53.154;18.136;2022-11-13T17:23:53;102298.25;;;8.52;100.00
25869;BME280;13688;53.154;18.136;2022-11-13T17:29:17;102297.38;;;8.51;100.00
25869;BME280;13688;53.154;18.136;2022-11-13T17:34:40;102302.75;;;8.51;100.00
25869;BME280;13688;53.154;18.136;2022-11-13T17:40:03;102300.25;;;8.47;100.00
25869;BME280;13688;53.154;18.136;2022-11-13T17:45:25;102302.93;;;8.47;100.00
25869;BME280;13688;53.154;18.136;2022-11-13T17:50:56;102312.67;;;8.49;100.00
25869;BME280;13688;53.154;18.136;2022-11-13T17:56:19;102316.33;;;8.47;100.00
25869;BME280;13688;53.154;18.136;2022-11-13T18:01:43;102313.58;;;8.48;100.00
25869;BME280;13688;53.154;18.136;2022-11-13T18:07:06;102323.44;;;8.48;100.00
25869;BME280;13688;53.154;18.136;2022-11-13T18:12:28;102321.52;;;8.51;100.00
25869;BME280;13688;53.154;18.136;2022-11-13T18:17:51;102318.91;;;8.50;100.00
25869;BME280;13688;53.154;18.136;2022-11-13T18:23:13;102325.25;;;8.47;100.00
25869;BME280;13688;53.154;18.136;2022-11-13T18:28:37;102325.17;;;8.49;100.00
25869;BME280;13688;53.154;18.136;2022-11-13T18:34:03;102337.70;;;8.48;100.00
25869;BME280;13688;53.154;18.136;2022-11-13T18:39:26;102336.03;;;8.46;100.00
25869;BME280;13688;53.154;18.136;2022-11-13T18:44:48;102344.95;;;8.46;100.00
25869;BME280;13688;53.154;18.136;2022-11-13T18:50:12;102341.54;;;8.43;100.00
25869;BME280;13688;53.154;18.136;2022-11-13T18:55:36;102340.78;;;8.39;100.00
25869;BME280;13688;53.154;18.136;2022-11-13T19:01:06;102339.00;;;8.40;100.00
25869;BME280;13688;53.154;18.136;2022-11-13T19:06:24;102333.82;;;8.35;100.00
25869;BME280;13688;53.154;18.136;2022-11-13T19:11:46;102333.06;;;8.31;100.00
25869;BME280;13688;53.154;18.136;2022-11-13T19:17:09;102338.53;;;8.28;100.00
25869;BME280;13688;53.154;18.136;2022-11-13T19:22:31;102345.11;;;8.21;100.00
25869;BME280;13688;53.154;18.136;2022-11-13T19:27:54;102340.72;;;8.19;100.00
25869;BME280;13688;53.154;18.136;2022-11-13T19:33:16;102334.77;;;8.12;100.00
25869;BME280;13688;53.154;18.136;2022-11-13T19:38:40;102331.95;;;8.15;100.00
25869;BME280;13688;53.154;18.136;2022-11-13T19:44:04;102333.94;;;8.10;100.00
25869;BME280;13688;53.154;18.136;2022-11-13T19:49:26;102323.43;;;8.06;100.00
25869;BME280;13688;53.154;18.136;2022-11-13T19:54:48;102321.06;;;7.98;100.00
25869;BME280;13688;53.154;18.136;2022-11-13T20:00:12;102328.36;;;7.94;100.00
25869;BME280;13688;53.154;18.136;2022-11-13T20:05:38;102329.30;;;7.93;100.00
25869;BME280;13688;53.154;18.136;2022-11-13T20:11:05;102322.23;;;7.91;100.00
25869;BME280;13688;53.154;18.136;2022-11-13T20:16:28;102325.92;;;7.88;100.00
25869;BME280;13688;53.154;18.136;2022-11-13T20:21:52;102326.06;;;7.85;100.00
25869;BME280;13688;53.154;18.136;2022-11-13T20:27:16;102303.44;;;7.70;100.00
25869;BME280;13688;53.154;18.136;2022-11-13T20:32:44;102303.44;;;7.70;100.00
25869;BME280;13688;53.154;18.136;2022-11-13T20:38:06;102304.27;;;7.72;100.00
25869;BME280;13688;53.154;18.136;2022-11-13T20:43:29;102311.41;;;7.72;100.00
25869;BME280;13688;53.154;18.136;2022-11-13T20:48:52;102308.80;;;7.70;100.00
25869;BME280;13688;53.154;18.136;2022-11-13T20:54:14;102305.31;;;7.68;100.00
25869;BME280;13688;53.154;18.136;2022-11-13T20:59:37;102304.58;;;7.65;100.00
25869;BME280;13688;53.154;18.136;2022-11-13T21:04:59;102303.14;;;7.56;100.00
25869;BME280;13688;53.154;18.136;2022-11-13T21:10:22;102301.33;;;7.57;100.00
25869;BME280;13688;53.154;18.136;2022-11-13T21:15:44;102304.50;;;7.44;100.00
25869;BME280;13688;53.154;18.136;2022-11-13T21:21:12;102291.13;;;7.44;100.00
25869;BME280;13688;53.154;18.136;2022-11-13T21:26:37;102293.83;;;7.43;100.00
25869;BME280;13688;53.154;18.136;2022-11-13T21:32:00;102296.51;;;7.43;100.00
25869;BME280;13688;53.154;18.136;2022-11-13T21:37:22;102285.87;;;7.41;100.00
25869;BME280;13688;53.154;18.136;2022-11-13T21:42:46;102284.13;;;7.40;100.00
25869;BME280;13688;53.154;18.136;2022-11-13T21:48:08;102284.93;;;7.42;100.00
25869;BME280;13688;53.154;18.136;2022-11-13T21:53:31;102278.84;;;7.39;100.00
25869;BME280;13688;53.154;18.136;2022-11-13T21:58:53;102287.73;;;7.39;100.00
25869;BME280;13688;53.154;18.136;2022-11-13T22:04:16;102285.27;;;7.35;100.00
25869;BME280;13688;53.154;18.136;2022-11-13T22:09:39;102282.58;;;7.35;100.00
25869;BME280;13688;53.154;18.136;2022-11-13T22:15:01;102282.62;;;7.33;100.00
25869;BME280;13688;53.154;18.136;2022-11-13T22:20:24;102275.66;;;7.29;100.00
25869;BME280;13688;53.154;18.136;2022-11-13T22:25:46;102273.91;;;7.28;100.00
25869;BME280;13688;53.154;18.136;2022-11-13T22:31:12;102265.83;;;7.30;100.00
25869;BME280;13688;53.154;18.136;2022-11-13T22:36:37;102260.61;;;7.27;100.00
25869;BME280;13688;53.154;18.136;2022-11-13T22:41:59;102259.61;;;7.29;100.00
25869;BME280;13688;53.154;18.136;2022-11-13T22:47:21;102258.67;;;7.30;100.00
25869;BME280;13688;53.154;18.136;2022-11-13T22:52:46;102258.67;;;7.30;100.00
25869;BME280;13688;53.154;18.136;2022-11-13T22:58:08;102249.64;;;7.33;100.00
25869;BME280;13688;53.154;18.136;2022-11-13T23:03:30;102251.41;;;7.34;100.00
25869;BME280;13688;53.154;18.136;2022-11-13T23:08:55;102246.09;;;7.32;100.00
25869;BME280;13688;53.154;18.136;2022-11-13T23:14:19;102245.16;;;7.33;100.00
25869;BME280;13688;53.154;18.136;2022-11-13T23:19:41;102241.67;;;7.31;100.00
25869;BME280;13688;53.154;18.136;2022-11-13T23:25:04;102245.42;;;7.27;100.00
25869;BME280;13688;53.154;18.136;2022-11-13T23:30:26;102237.39;;;7.27;100.00
25869;BME280;13688;53.154;18.136;2022-11-13T23:35:49;102231.24;;;7.25;100.00
25869;BME280;13688;53.154;18.136;2022-11-13T23:41:14;102222.52;;;7.20;100.00
25869;BME280;13688;53.154;18.136;2022-11-13T23:46:36;102222.87;;;7.11;100.00
25869;BME280;13688;53.154;18.136;2022-11-13T23:51:58;102216.72;;;7.09;100.00
25869;BME280;13688;53.154;18.136;2022-11-13T23:57:20;102211.59;;;7.03;100.00
